Time;durP1;ratioP1;P1;durP2;ratioP2;P2;SDS_P1;SDS_P2;PMS_P1;PMS_P2;Temp;Humidity;BMP_temperature;BMP_pressure;BME280_temperature;BME280_humidity;BME280_pressure;Samples;Min_cycle;Max_cycle;Signal;HPM_P1;HPM_P2
2023/10/24 00:02:02;;;;;;;12.63;8.03;;;;;;;15.62;69.83;99619.09;4424282;32;33272;-79
2023/10/24 00:04:30;;;;;;;14.77;8.18;;;;;;;15.83;68.71;99624.78;4428671;32;33961;-79
2023/10/24 00:06:58;;;;;;;12.23;7.72;;;;;;;15.58;69.71;99625.97;4427576;32;33780;-79
2023/10/24 00:09:25;;;;;;;13.55;7.78;;;;;;;15.84;69.90;99626.56;4432006;32;33769;-79
2023/10/24 00:11:53;;;;;;;13.95;8.10;;;;;;;15.73;70.42;99622.84;4415636;32;33473;-79
2023/10/24 00:14:20;;;;;;;12.32;7.75;;;;;;;15.69;70.81;99605.31;4433953;32;34173;-79
2023/10/24 00:16:48;;;;;;;12.57;7.62;;;;;;;15.66;70.79;99597.41;4413888;32;33955;-79
2023/10/24 00:19:16;;;;;;;13.02;7.60;;;;;;;15.98;69.08;99592.03;4429947;32;33686;-79
2023/10/24 00:21:43;;;;;;;13.55;7.85;;;;;;;15.76;69.74;99583.75;4430171;32;33759;-79
2023/10/24 00:24:11;;;;;;;11.68;7.50;;;;;;;15.91;68.60;99581.41;4430077;32;33648;-79
2023/10/24 00:26:39;;;;;;;12.63;7.40;;;;;;;15.67;69.20;99580.91;4427060;32;34386;-79
2023/10/24 00:29:06;;;;;;;13.93;7.93;;;;;;;15.64;68.67;99573.00;4411930;32;32161;-79
2023/10/24 00:31:34;;;;;;;11.98;7.80;;;;;;;15.73;68.84;99566.28;4423825;32;33838;-79
2023/10/24 00:34:01;;;;;;;11.88;7.60;;;;;;;15.38;69.99;99557.69;4424863;32;32994;-79
2023/10/24 00:36:29;;;;;;;11.93;7.45;;;;;;;15.51;69.50;99553.59;4428787;32;34021;-79
2023/10/24 00:38:56;;;;;;;11.90;7.00;;;;;;;15.40;70.39;99550.78;4427175;32;33682;-79
2023/10/24 00:41:24;;;;;;;12.37;7.47;;;;;;;15.48;70.02;99546.59;4423748;32;33553;-79
2023/10/24 00:43:52;;;;;;;14.73;7.75;;;;;;;15.40;70.46;99540.34;4429645;32;34450;-79
2023/10/24 00:46:19;;;;;;;13.43;7.50;;;;;;;15.47;70.18;99542.22;4429204;32;34439;-79
2023/10/24 00:48:48;;;;;;;11.32;7.10;;;;;;;15.37;70.86;99540.25;4416065;32;33809;-79
2023/10/24 00:51:16;;;;;;;11.30;7.20;;;;;;;15.37;70.96;99540.25;4415379;32;33886;-79
2023/10/24 00:53:43;;;;;;;11.10;7.37;;;;;;;15.67;70.43;99533.91;4431365;32;34295;-79
2023/10/24 00:56:12;;;;;;;10.63;7.07;;;;;;;15.82;69.98;99549.94;4419539;32;33626;-79
2023/10/24 00:58:40;;;;;;;11.32;7.18;;;;;;;15.80;70.05;99556.84;4434098;32;33695;-79
2023/10/24 01:01:11;;;;;;;12.90;7.93;;;;;;;15.90;69.39;99564.00;4419674;32;33519;-79
2023/10/24 01:03:39;;;;;;;10.80;7.30;;;;;;;15.83;69.41;99562.12;4410771;32;32758;-79
2023/10/24 01:06:07;;;;;;;11.27;7.23;;;;;;;15.83;69.14;99556.91;4422276;32;34367;-79
2023/10/24 01:08:35;;;;;;;13.00;8.05;;;;;;;15.67;70.11;99567.88;4395981;32;33495;-79
2023/10/24 01:11:03;;;;;;;11.50;7.40;;;;;;;15.84;69.80;99579.56;4425173;32;33162;-79
2023/10/24 01:13:31;;;;;;;12.65;7.87;;;;;;;15.85;69.66;99586.53;4405664;32;33115;-79
2023/10/24 01:15:59;;;;;;;13.55;7.93;;;;;;;15.77;69.75;99598.56;4421258;32;33325;-79
2023/10/24 01:18:26;;;;;;;11.90;8.20;;;;;;;15.91;69.38;99586.66;4431922;32;34749;-79
2023/10/24 01:20:54;;;;;;;12.90;7.55;;;;;;;15.85;69.35;99585.66;4427012;32;33487;-79
2023/10/24 01:23:21;;;;;;;11.63;8.40;;;;;;;15.71;69.59;99594.06;4420431;32;33948;-79
2023/10/24 01:25:51;;;;;;;12.68;8.15;;;;;;;15.89;68.66;99588.34;4429531;32;34483;-79
2023/10/24 01:28:18;;;;;;;11.88;7.87;;;;;;;15.64;69.65;99592.16;4416752;32;34218;-79
2023/10/24 01:30:46;;;;;;;13.07;8.43;;;;;;;15.59;69.62;99587.69;4393996;32;33479;-79
2023/10/24 01:33:13;;;;;;;14.10;8.38;;;;;;;15.71;68.63;99575.78;4431208;32;33018;-79
2023/10/24 01:35:41;;;;;;;14.13;7.73;;;;;;;16.01;67.40;99572.06;4423271;32;34338;-79
2023/10/24 01:38:08;;;;;;;11.30;7.65;;;;;;;15.58;69.10;99571.16;4431876;32;33863;-79
2023/10/24 01:40:37;;;;;;;11.55;8.07;;;;;;;15.24;69.95;99570.44;4427109;32;34136;-79
2023/10/24 01:43:05;;;;;;;11.65;8.10;;;;;;;15.29;69.54;99568.78;4425609;32;33440;-79
2023/10/24 01:45:33;;;;;;;11.80;7.50;;;;;;;15.49;68.59;99561.41;4432134;32;33656;-79
2023/10/24 01:48:01;;;;;;;13.73;7.87;;;;;;;15.37;68.98;99566.34;4430465;32;34412;-79
2023/10/24 01:50:28;;;;;;;13.65;8.85;;;;;;;15.54;68.21;99564.97;4426063;32;33506;-79
2023/10/24 01:52:58;;;;;;;14.32;8.82;;;;;;;15.70;68.03;99560.97;4412480;32;33409;-80
2023/10/24 01:55:26;;;;;;;13.50;8.48;;;;;;;15.49;69.26;99556.19;4432325;32;33477;-79
2023/10/24 01:57:54;;;;;;;12.32;8.10;;;;;;;15.30;70.70;99551.44;4422906;32;33341;-79
2023/10/24 02:00:21;;;;;;;13.13;8.30;;;;;;;15.45;70.19;99553.47;4421464;32;33686;-79
2023/10/24 02:02:50;;;;;;;11.40;8.32;;;;;;;15.50;69.54;99542.28;4426970;32;34062;-79
2023/10/24 02:05:17;;;;;;;13.68;8.30;;;;;;;15.28;70.58;99545.31;4430947;32;34632;-78
2023/10/24 02:07:45;;;;;;;13.13;8.52;;;;;;;15.14;71.60;99550.19;4432921;32;34300;-79
2023/10/24 02:10:13;;;;;;;13.83;8.13;;;;;;;15.34;71.07;99542.81;4431056;32;34298;-80
2023/10/24 02:12:41;;;;;;;13.73;8.40;;;;;;;15.56;70.28;99541.53;4406744;32;33229;-79
2023/10/24 02:15:09;;;;;;;12.70;8.43;;;;;;;15.34;70.65;99524.56;4429071;32;34471;-79
2023/10/24 02:17:37;;;;;;;13.30;8.07;;;;;;;15.30;70.69;99518.38;4422338;32;33843;-79
2023/10/24 02:20:05;;;;;;;13.38;8.63;;;;;;;15.67;69.58;99533.91;4433424;32;33765;-79
2023/10/24 02:22:42;;;;;;;12.55;8.13;;;;;;;15.56;69.60;99530.22;4400868;32;32434;-80
2023/10/24 02:25:09;;;;;;;14.35;8.80;;;;;;;15.26;70.51;99539.13;4421849;32;33789;-79
2023/10/24 02:27:38;;;;;;;13.07;8.57;;;;;;;15.17;70.86;99546.78;4434507;32;34551;-79
2023/10/24 02:30:06;;;;;;;15.00;8.82;;;;;;;15.12;71.09;99544.06;4424772;32;33818;-79
2023/10/24 02:32:34;;;;;;;13.27;9.05;;;;;;;15.44;69.77;99544.75;4428794;32;33863;-79
2023/10/24 02:35:01;;;;;;;13.57;8.65;;;;;;;15.26;70.47;99546.97;4427750;32;33512;-79
2023/10/24 02:37:29;;;;;;;12.43;8.30;;;;;;;15.24;70.68;99541.75;4434419;32;34267;-79
2023/10/24 02:39:57;;;;;;;13.63;8.77;;;;;;;15.17;70.14;99534.63;4424851;32;33625;-79
2023/10/24 02:42:24;;;;;;;13.70;8.65;;;;;;;15.13;70.15;99543.22;4413821;32;33491;-79
2023/10/24 02:44:52;;;;;;;15.55;8.85;;;;;;;14.94;70.78;99554.97;4414709;32;33759;-79
2023/10/24 02:47:20;;;;;;;13.73;9.15;;;;;;;14.98;70.73;99550.72;4429014;32;34505;-79
2023/10/24 02:49:47;;;;;;;12.48;8.93;;;;;;;15.13;70.57;99536.28;4430453;32;33580;-79
2023/10/24 02:52:16;;;;;;;13.27;8.50;;;;;;;15.05;71.02;99537.84;4428951;32;34073;-79
2023/10/24 02:54:43;;;;;;;14.23;9.13;;;;;;;15.07;71.08;99540.47;4425779;32;35071;-79
2023/10/24 02:57:11;;;;;;;12.98;8.68;;;;;;;15.06;70.77;99544.81;4426052;32;34561;-79
2023/10/24 02:59:39;;;;;;;14.02;8.75;;;;;;;15.02;70.82;99524.72;4433284;32;34323;-79
2023/10/24 03:02:07;;;;;;;14.73;9.05;;;;;;;14.89;71.19;99517.44;4428602;32;33933;-79
2023/10/24 03:04:35;;;;;;;12.27;8.35;;;;;;;15.20;70.04;99510.31;4402159;32;33399;-79
2023/10/24 03:07:03;;;;;;;12.93;9.13;;;;;;;15.05;70.67;99496.09;4432771;32;33542;-79
2023/10/24 03:09:33;;;;;;;11.52;8.32;;;;;;;15.01;71.06;99493.38;4385859;32;780346;-79
2023/10/24 03:12:00;;;;;;;14.90;8.65;;;;;;;14.99;71.14;99489.84;4429634;32;33192;-79
2023/10/24 03:14:28;;;;;;;12.37;8.73;;;;;;;14.92;71.41;99494.06;4422045;32;33819;-79
2023/10/24 03:16:55;;;;;;;13.15;8.77;;;;;;;14.92;71.44;99486.25;4430800;32;33689;-79
2023/10/24 03:19:24;;;;;;;13.35;9.10;;;;;;;14.93;71.48;99480.16;4424992;32;34472;-79
2023/10/24 03:21:52;;;;;;;14.35;9.55;;;;;;;14.90;71.71;99456.66;4428159;32;33442;-79
2023/10/24 03:24:20;;;;;;;15.90;8.63;;;;;;;14.97;71.55;99445.50;4432012;32;33486;-79
2023/10/24 03:26:47;;;;;;;12.32;8.07;;;;;;;15.12;71.07;99458.88;4415919;32;33676;-79
2023/10/24 03:29:14;;;;;;;13.20;7.97;;;;;;;15.16;71.11;99479.78;4426031;32;34111;-79
2023/10/24 03:31:42;;;;;;;13.98;8.60;;;;;;;15.20;70.92;99479.91;4427338;32;33590;-79
2023/10/24 03:34:10;;;;;;;11.38;7.90;;;;;;;15.09;71.58;99482.28;4432666;32;33749;-79
2023/10/24 03:36:37;;;;;;;12.97;8.33;;;;;;;15.05;71.57;99493.50;4428248;32;33861;-79
2023/10/24 03:39:06;;;;;;;10.13;7.37;;;;;;;15.03;71.32;99500.41;4426875;32;33569;-79
2023/10/24 03:41:33;;;;;;;13.45;7.90;;;;;;;15.29;69.65;99519.22;4426349;32;33374;-79
2023/10/24 03:44:01;;;;;;;12.77;8.57;;;;;;;14.94;70.28;99521.06;4433482;32;33951;-79
2023/10/24 03:46:28;;;;;;;11.12;7.50;;;;;;;14.88;70.02;99510.50;4427478;32;34688;-79
2023/10/24 03:48:57;;;;;;;11.40;7.78;;;;;;;14.86;70.61;99505.25;4427700;32;34497;-79
2023/10/24 03:51:24;;;;;;;10.82;7.30;;;;;;;14.89;70.69;99507.03;4412411;32;34024;-79
2023/10/24 03:53:53;;;;;;;13.02;7.90;;;;;;;15.05;69.99;99503.94;4434258;32;33715;-80
2023/10/24 03:56:20;;;;;;;12.35;8.20;;;;;;;14.99;70.01;99506.41;4426634;32;34599;-79
2023/10/24 03:58:47;;;;;;;12.52;7.75;;;;;;;14.97;70.18;99492.44;4430334;32;34509;-79
2023/10/24 04:01:15;;;;;;;11.88;7.50;;;;;;;14.92;70.39;99483.63;4427696;32;33395;-79
2023/10/24 04:03:43;;;;;;;11.13;7.27;;;;;;;15.00;70.66;99486.41;4411481;32;32983;-79
2023/10/24 04:06:11;;;;;;;11.63;7.40;;;;;;;15.47;68.64;99494.34;4419462;32;33860;-79
2023/10/24 04:08:39;;;;;;;12.05;7.93;;;;;;;15.24;68.91;99486.03;4408290;32;33910;-79
2023/10/24 04:11:17;;;;;;;12.40;7.65;;;;;;;15.12;68.95;99482.34;4418764;32;31839;-79
2023/10/24 04:13:46;;;;;;;11.65;7.93;;;;;;;15.02;69.33;99475.16;4435377;32;33066;-79
2023/10/24 04:16:14;;;;;;;11.77;8.00;;;;;;;14.98;68.93;99478.56;4429395;32;34064;-79
2023/10/24 04:18:42;;;;;;;11.77;7.62;;;;;;;15.06;68.48;99482.19;4427819;32;33865;-79
2023/10/24 04:21:13;;;;;;;11.17;7.60;;;;;;;14.92;68.65;99478.41;4426235;32;34290;-79
2023/10/24 04:23:41;;;;;;;12.00;7.64;;;;;;;14.69;69.91;99468.34;4426975;32;33432;-79
2023/10/24 04:26:09;;;;;;;13.62;7.90;;;;;;;15.10;68.78;99465.78;4420164;32;33469;-79
2023/10/24 04:28:38;;;;;;;11.47;8.50;;;;;;;14.77;69.77;99478.06;4434733;32;33728;-79
2023/10/24 04:31:09;;;;;;;14.20;8.02;;;;;;;14.59;70.45;99484.63;4425166;32;32679;-79
2023/10/24 04:33:37;;;;;;;12.05;7.97;;;;;;;14.65;69.82;99484.75;4435046;32;34126;-80
2023/10/24 04:36:10;;;;;;;10.73;7.50;;;;;;;14.79;69.67;99486.81;4417783;32;34552;-79
2023/10/24 04:38:38;;;;;;;12.30;8.27;;;;;;;14.77;68.98;99493.72;4428133;32;33575;-79
2023/10/24 04:41:05;;;;;;;12.68;7.97;;;;;;;14.61;69.94;99498.56;4427856;32;34114;-79
2023/10/24 04:43:33;;;;;;;11.65;8.65;;;;;;;14.46;71.01;99519.03;4426596;32;33655;-79
2023/10/24 04:46:01;;;;;;;11.05;7.87;;;;;;;14.88;69.55;99513.97;4432634;32;33741;-80
2023/10/24 04:48:29;;;;;;;15.50;8.57;;;;;;;14.80;69.47;99497.28;4413004;32;33427;-80
2023/10/24 04:50:56;;;;;;;14.48;9.02;;;;;;;14.73;69.36;99491.03;4427208;32;33242;-79
2023/10/24 04:53:24;;;;;;;12.90;8.25;;;;;;;14.60;70.23;99491.59;4429016;32;33507;-79
2023/10/24 04:55:51;;;;;;;11.73;8.23;;;;;;;14.52;70.13;99487.88;4421511;32;33422;-79
2023/10/24 04:58:18;;;;;;;12.05;8.63;;;;;;;14.70;69.57;99482.28;4426006;32;33687;-79
2023/10/24 05:00:46;;;;;;;13.77;8.77;;;;;;;14.43;70.27;99482.44;4433425;32;34232;-79
2023/10/24 05:03:14;;;;;;;12.43;8.90;;;;;;;14.32;70.64;99482.22;4425091;32;34092;-79
2023/10/24 05:05:41;;;;;;;14.32;9.10;;;;;;;14.50;69.68;99482.63;4433397;32;33371;-79
2023/10/24 05:08:10;;;;;;;13.53;8.90;;;;;;;14.33;70.14;99482.25;4422750;32;33586;-79
2023/10/24 05:10:38;;;;;;;12.13;8.25;;;;;;;14.44;69.98;99484.22;4421721;32;33061;-79
2023/10/24 05:13:06;;;;;;;13.98;9.15;;;;;;;14.87;68.35;99485.25;4424987;32;34389;-79
2023/10/24 05:15:34;;;;;;;14.15;9.40;;;;;;;14.40;69.47;99478.06;4424749;32;33355;-80
2023/10/24 05:18:02;;;;;;;18.33;9.48;;;;;;;14.43;69.69;99487.66;4431015;32;34654;-79
2023/10/24 05:20:29;;;;;;;15.82;9.02;;;;;;;14.38;69.54;99489.28;4413477;32;33036;-79
2023/10/24 05:22:57;;;;;;;13.00;8.73;;;;;;;14.57;68.94;99482.84;4429570;32;33776;-79
2023/10/24 05:25:24;;;;;;;14.50;9.18;;;;;;;14.16;70.33;99475.75;4423916;32;33593;-79
2023/10/24 05:27:52;;;;;;;13.27;8.50;;;;;;;14.08;70.62;99485.06;4433050;32;33230;-79
2023/10/24 05:30:21;;;;;;;15.23;9.40;;;;;;;13.90;71.24;99481.16;4424990;32;33040;-79
2023/10/24 05:32:48;;;;;;;15.30;9.48;;;;;;;14.43;69.11;99467.72;4413605;32;33070;-79
2023/10/24 05:35:16;;;;;;;16.90;9.70;;;;;;;14.19;69.91;99478.41;4424722;32;33747;-79
2023/10/24 05:37:44;;;;;;;16.02;9.80;;;;;;;14.23;70.04;99479.38;4427034;32;33678;-79
2023/10/24 05:40:11;;;;;;;17.77;11.10;;;;;;;14.02;70.96;99487.53;4430665;32;33331;-79
2023/10/24 05:42:41;;;;;;;15.60;10.88;;;;;;;14.04;70.96;99472.81;4427777;32;32498;-79
2023/10/24 05:45:09;;;;;;;17.85;10.80;;;;;;;14.02;70.86;99470.16;4427955;32;32508;-79
2023/10/24 05:47:37;;;;;;;16.87;9.82;;;;;;;14.33;69.38;99468.31;4415843;32;34416;-80
2023/10/24 05:50:05;;;;;;;16.58;9.45;;;;;;;14.09;70.41;99472.09;4419843;32;32995;-80
2023/10/24 05:52:33;;;;;;;14.95;8.60;;;;;;;14.20;70.21;99480.19;4424706;32;33833;-79
2023/10/24 05:55:00;;;;;;;15.57;9.20;;;;;;;14.27;69.69;99487.28;4417311;32;33725;-79
2023/10/24 05:57:28;;;;;;;17.33;9.43;;;;;;;14.29;69.30;99489.94;4424675;32;33653;-79
2023/10/24 05:59:56;;;;;;;16.70;9.80;;;;;;;14.00;70.47;99484.00;4423936;32;33138;-79
2023/10/24 06:02:24;;;;;;;15.33;9.40;;;;;;;14.17;70.14;99490.50;4422094;32;33671;-80
2023/10/24 06:04:52;;;;;;;15.77;9.32;;;;;;;14.20;70.31;99484.50;4425590;32;33075;-79
2023/10/24 06:07:19;;;;;;;17.40;9.63;;;;;;;14.04;71.01;99483.22;4417724;32;32513;-79
2023/10/24 06:09:47;;;;;;;17.37;9.90;;;;;;;13.93;71.71;99499.47;4427189;32;34275;-80
2023/10/24 06:12:15;;;;;;;14.73;9.68;;;;;;;14.00;71.86;99491.81;4425364;32;33515;-80
2023/10/24 06:14:42;;;;;;;20.73;9.38;;;;;;;14.26;70.95;99495.97;4434809;32;34354;-79
2023/10/24 06:17:11;;;;;;;16.37;8.98;;;;;;;14.47;70.27;99511.25;4424640;32;33536;-79
2023/10/24 06:19:40;;;;;;;9.57;6.00;;;;;;;14.25;71.11;99504.59;4411608;32;32423;-78
2023/10/24 06:22:08;;;;;;;15.43;8.50;;;;;;;14.42;83.76;99493.72;4431238;32;34233;-79
2023/10/24 06:24:36;;;;;;;14.95;8.77;;;;;;;14.59;80.90;99499.41;4428915;32;33558;-79
2023/10/24 06:27:04;;;;;;;16.98;8.80;;;;;;;14.79;77.56;99507.66;4423061;32;33171;-80
2023/10/24 06:29:32;;;;;;;15.00;8.88;;;;;;;14.55;75.82;99499.28;4429161;32;33138;-80
2023/10/24 06:31:59;;;;;;;14.35;9.00;;;;;;;14.40;74.79;99492.81;4433095;32;33674;-80
2023/10/24 06:34:27;;;;;;;14.57;9.20;;;;;;;14.56;72.96;99487.12;4432489;32;34028;-81
2023/10/24 06:36:55;;;;;;;14.90;9.05;;;;;;;14.68;72.09;99497.87;4432203;32;33508;-80
2023/10/24 06:39:22;;;;;;;13.23;8.98;;;;;;;14.72;71.32;99504.94;4430421;32;33198;-80
2023/10/24 06:41:54;;;;;;;15.33;9.27;;;;;;;14.94;70.89;99514.09;4429622;32;34108;-80
2023/10/24 06:44:22;;;;;;;15.02;9.40;;;;;;;14.91;70.97;99502.72;4409886;32;32231;-80
2023/10/24 06:46:52;;;;;;;13.70;9.30;;;;;;;14.96;70.89;99480.25;4423398;32;33441;-80
2023/10/24 06:49:20;;;;;;;15.45;9.75;;;;;;;14.79;71.85;99492.03;4423830;32;33507;-80
2023/10/24 06:51:48;;;;;;;14.27;9.80;;;;;;;14.85;72.05;99492.16;4433105;32;33979;-80
2023/10/24 06:54:15;;;;;;;16.12;9.95;;;;;;;14.94;72.04;99471.50;4428323;32;34521;-79
2023/10/24 06:56:43;;;;;;;15.77;10.50;;;;;;;15.15;71.33;99465.88;4423265;32;34521;-79
2023/10/24 06:59:10;;;;;;;14.10;10.32;;;;;;;15.12;71.48;99471.91;4423609;32;34228;-80
2023/10/24 07:01:38;;;;;;;19.02;10.90;;;;;;;15.25;71.76;99482.59;4423370;32;34572;-80
2023/10/24 07:04:06;;;;;;;17.30;10.55;;;;;;;15.33;71.80;99467.97;4424496;32;33924;-80
2023/10/24 07:06:34;;;;;;;16.25;11.32;;;;;;;15.16;72.41;99466.75;4424255;32;34203;-80
2023/10/24 07:09:01;;;;;;;16.62;11.32;;;;;;;15.35;71.72;99468.88;4426811;32;33860;-81
2023/10/24 07:11:29;;;;;;;16.42;10.68;;;;;;;15.43;71.56;99471.66;4423756;32;34525;-80
2023/10/24 07:13:57;;;;;;;16.50;10.20;;;;;;;15.47;71.30;99469.16;4429234;32;33844;-81
2023/10/24 07:16:24;;;;;;;15.20;11.02;;;;;;;15.61;71.39;99478.97;4417469;32;33376;-80
2023/10/24 07:18:52;;;;;;;15.45;10.63;;;;;;;15.64;71.83;99477.28;4428785;32;33791;-81
2023/10/24 07:21:20;;;;;;;15.15;10.07;;;;;;;15.63;72.12;99474.66;4427104;32;34478;-79
2023/10/24 07:23:47;;;;;;;15.27;10.07;;;;;;;15.86;71.44;99468.16;4424521;32;34762;-80
2023/10/24 07:26:15;;;;;;;15.90;10.40;;;;;;;15.88;71.57;99470.81;4406683;32;32517;-81
2023/10/24 07:28:43;;;;;;;16.10;10.43;;;;;;;15.96;71.52;99463.12;4425982;32;33473;-81
2023/10/24 07:31:10;;;;;;;15.30;9.87;;;;;;;15.85;72.10;99466.38;4434066;32;33758;-80
2023/10/24 07:33:38;;;;;;;13.48;6.75;;;;;;;16.09;71.46;99472.94;4427567;32;34418;-80
2023/10/24 07:36:06;;;;;;;12.70;9.25;;;;;;;16.06;81.88;99475.47;4436045;32;34644;-80
2023/10/24 07:38:33;;;;;;;14.75;9.00;;;;;;;16.40;77.62;99466.47;4428320;32;33929;-80
2023/10/24 07:41:02;;;;;;;14.15;9.32;;;;;;;16.61;73.96;99455.47;4424372;32;34395;-80
2023/10/24 07:43:30;;;;;;;14.35;9.88;;;;;;;16.57;72.55;99453.63;4423601;32;33773;-81
2023/10/24 07:45:57;;;;;;;14.05;9.27;;;;;;;16.58;71.45;99446.69;4430899;32;33383;-80
2023/10/24 07:48:26;;;;;;;14.85;9.85;;;;;;;16.77;70.20;99446.09;4425463;32;33528;-80
2023/10/24 07:50:55;;;;;;;14.48;8.98;;;;;;;16.67;70.32;99444.22;4427846;32;33311;-80
2023/10/24 07:53:25;;;;;;;13.65;9.60;;;;;;;16.84;70.32;99441.84;4427816;32;32270;-81
2023/10/24 07:55:53;;;;;;;14.32;9.93;;;;;;;16.83;70.16;99445.34;4428258;32;33490;-80
2023/10/24 07:58:21;;;;;;;15.38;10.05;;;;;;;16.89;69.79;99442.78;4429594;32;33228;-80
2023/10/24 08:00:49;;;;;;;14.30;9.48;;;;;;;17.10;69.21;99435.22;4415215;32;33370;-80
2023/10/24 08:03:17;;;;;;;12.48;8.98;;;;;;;17.04;69.47;99429.91;4424520;32;33875;-79
2023/10/24 08:05:45;;;;;;;12.75;8.80;;;;;;;17.18;69.21;99437.06;4423745;32;34647;-80
2023/10/24 08:08:12;;;;;;;13.40;8.50;;;;;;;17.22;68.70;99438.84;4410920;32;33343;-81
2023/10/24 08:10:40;;;;;;;13.13;8.70;;;;;;;17.10;70.96;99445.69;4425561;32;33759;-80
2023/10/24 08:13:07;;;;;;;12.75;8.85;;;;;;;17.21;74.79;99452.78;4422399;32;33731;-81
2023/10/24 08:15:35;;;;;;;15.00;8.85;;;;;;;17.42;70.57;99444.31;4428367;32;33725;-81
2023/10/24 08:18:03;;;;;;;14.40;8.55;;;;;;;17.65;68.48;99440.22;4421070;32;34220;-80
2023/10/24 08:20:30;;;;;;;13.32;8.32;;;;;;;17.75;66.49;99433.34;4422812;32;33599;-80
2023/10/24 08:22:58;;;;;;;11.68;8.73;;;;;;;17.60;67.07;99441.03;4407424;32;33313;-80
2023/10/24 08:25:25;;;;;;;13.02;8.60;;;;;;;17.71;66.36;99443.75;4427927;32;33576;-79
2023/10/24 08:27:53;;;;;;;13.82;8.50;;;;;;;17.83;66.25;99444.75;4421251;32;33256;-79
2023/10/24 08:30:20;;;;;;;13.00;8.75;;;;;;;17.79;66.13;99442.06;4422702;32;34500;-81
2023/10/24 08:32:48;;;;;;;12.98;8.60;;;;;;;17.83;66.01;99446.50;4423506;32;34343;-85
2023/10/24 08:35:16;;;;;;;12.18;8.45;;;;;;;17.98;65.24;99437.94;4425684;32;33595;-82
2023/10/24 08:37:43;;;;;;;11.32;8.18;;;;;;;18.19;64.86;99432.00;4426712;32;33269;-84
2023/10/24 08:40:11;;;;;;;13.05;8.32;;;;;;;18.45;63.63;99425.19;4433069;32;34617;-82
2023/10/24 08:42:39;;;;;;;17.02;13.48;;;;;;;18.16;65.20;99432.84;4416740;32;33805;-83
2023/10/24 08:45:07;;;;;;;13.62;8.48;;;;;;;18.24;65.32;99433.78;4424839;32;33782;-82
2023/10/24 08:47:36;;;;;;;13.23;8.43;;;;;;;18.47;64.45;99435.72;4428294;32;33041;-82
2023/10/24 08:50:05;;;;;;;13.70;8.52;;;;;;;18.21;65.67;99428.50;4424236;32;34343;-81
2023/10/24 08:52:33;;;;;;;12.07;8.02;;;;;;;18.33;65.82;99425.12;4424180;32;33586;-78
2023/10/24 08:55:04;;;;;;;12.50;8.38;;;;;;;18.35;65.12;99423.41;4426279;32;33831;-81
2023/10/24 08:57:51;;;;;;;13.50;8.63;;;;;;;18.29;65.17;99428.56;4423141;32;32466;-81
2023/10/24 09:00:22;;;;;;;13.85;8.13;;;;;;;18.46;64.52;99432.19;4429735;32;32666;-83
2023/10/24 09:02:49;;;;;;;14.85;8.18;;;;;;;18.60;63.79;99419.19;4422588;32;34032;-84
2023/10/24 09:05:18;;;;;;;12.73;8.55;;;;;;;18.44;64.67;99418.19;4425741;32;34625;-83
2023/10/24 09:07:46;;;;;;;13.52;8.85;;;;;;;18.39;64.97;99413.81;4426760;32;34282;-83
2023/10/24 09:10:14;;;;;;;15.13;8.37;;;;;;;18.54;64.43;99413.87;4413408;32;33083;-82
2023/10/24 09:12:42;;;;;;;13.95;9.05;;;;;;;18.62;64.30;99408.69;4425957;32;33762;-82
2023/10/24 09:15:10;;;;;;;14.70;9.50;;;;;;;18.57;64.10;99395.56;4410938;32;33722;-82
2023/10/24 09:17:38;;;;;;;15.73;9.30;;;;;;;18.69;63.53;99386.88;4427831;32;33582;-82
2023/10/24 09:20:07;;;;;;;14.65;8.88;;;;;;;18.56;63.93;99385.03;4417337;32;33703;-82
2023/10/24 09:22:35;;;;;;;13.77;8.35;;;;;;;18.64;64.05;99367.63;4425025;32;33408;-79
2023/10/24 09:25:04;;;;;;;15.37;8.70;;;;;;;18.75;63.88;99365.03;4430185;32;33679;-83
2023/10/24 09:27:32;;;;;;;12.02;8.30;;;;;;;18.83;63.39;99373.84;4423752;32;33208;-83
2023/10/24 09:30:10;;;;;;;12.77;8.15;;;;;;;18.99;63.24;99386.19;4427574;32;34361;-82
2023/10/24 09:32:40;;;;;;;14.35;8.63;;;;;;;18.98;62.90;99389.66;4424280;32;32710;-82
2023/10/24 09:35:09;;;;;;;13.93;8.38;;;;;;;19.03;62.75;99372.19;4425827;32;32861;-83
2023/10/24 09:37:38;;;;;;;12.43;7.80;;;;;;;19.42;62.38;99383.69;4430070;32;33432;-82
2023/10/24 09:40:06;;;;;;;14.50;8.10;;;;;;;19.90;60.96;99394.28;4424302;32;34393;-83
2023/10/24 09:42:34;;;;;;;14.07;7.50;;;;;;;20.14;59.92;99387.28;4427880;32;33822;-82
2023/10/24 09:45:08;;;;;;;12.03;7.83;;;;;;;19.98;60.15;99389.03;4417216;32;34149;-80
2023/10/24 09:47:38;;;;;;;14.60;8.07;;;;;;;19.98;59.96;99386.41;4424765;32;32935;-83
2023/10/24 09:50:10;;;;;;;13.95;7.70;;;;;;;20.14;59.37;99393.41;4419633;32;33860;-81
2023/10/24 09:52:40;;;;;;;12.70;7.15;;;;;;;20.15;58.71;99400.44;4400197;32;32159;-82
2023/10/24 09:55:08;;;;;;;13.45;7.57;;;;;;;20.26;59.11;99403.03;4413348;32;32475;-82
2023/10/24 09:57:36;;;;;;;11.95;7.05;;;;;;;20.15;59.92;99374.13;4414925;32;33255;-82
2023/10/24 10:00:05;;;;;;;13.52;6.65;;;;;;;20.32;59.86;99360.97;4408946;32;34608;-82
2023/10/24 10:02:40;;;;;;;17.17;7.32;;;;;;;20.67;59.04;99364.38;4424907;32;33960;-83
2023/10/24 10:05:08;;;;;;;12.20;6.72;;;;;;;20.55;58.39;99363.53;4426735;32;33060;-82
2023/10/24 10:07:38;;;;;;;10.57;5.70;;;;;;;20.72;58.43;99360.00;4410538;32;32298;-82
2023/10/24 10:10:07;;;;;;;14.45;6.35;;;;;;;20.97;57.98;99345.84;4408514;32;33465;-83
2023/10/24 10:12:34;;;;;;;8.95;5.28;;;;;;;21.19;56.97;99351.03;4414913;32;35101;-83
2023/10/24 10:15:11;;;;;;;9.52;4.47;;;;;;;21.32;56.96;99331.59;4409281;32;33812;-83
2023/10/24 10:18:10;;;;;;;11.68;3.97;;;;;;;21.25;56.31;99314.13;4410151;32;32385;-82
2023/10/24 10:21:10;;;;;;;10.03;4.03;;;;;;;21.52;55.18;99296.41;4415031;32;32667;-84
2023/10/24 10:24:19;;;;;;;9.25;4.00;;;;;;;21.16;56.86;99307.13;4424781;32;32916;-83
2023/10/24 10:27:00;;;;;;;13.83;4.33;;;;;;;21.06;57.46;99308.06;4422335;32;32851;-84
2023/10/24 10:29:52;;;;;;;10.55;4.60;;;;;;;21.32;55.16;99305.25;4430840;32;32962;-82
2023/10/24 10:32:38;;;;;;;9.10;4.15;;;;;;;21.09;56.40;99313.31;4421686;32;32981;-83
2023/10/24 10:35:48;;;;;;;10.60;4.40;;;;;;;21.26;56.24;99299.19;4414372;32;33672;-83
2023/10/24 10:38:44;;;;;;;8.85;3.12;;;;;;;20.96;58.36;99301.13;4422566;32;33018;-84
2023/10/24 10:41:21;;;;;;;9.52;3.30;;;;;;;21.22;56.60;99293.03;4419310;32;33139;-83
2023/10/24 10:43:59;;;;;;;9.30;3.60;;;;;;;21.30;56.34;99285.97;4422299;32;33555;-83
2023/10/24 10:46:29;;;;;;;7.43;2.72;;;;;;;21.46;56.16;99293.78;4423586;32;32819;-86
2023/10/24 10:49:02;;;;;;;6.50;2.93;;;;;;;21.46;55.37;99278.88;4421093;32;34509;-84
2023/10/24 10:51:32;;;;;;;6.70;2.80;;;;;;;21.09;57.27;99291.38;4425061;32;33505;-83
2023/10/24 10:54:23;;;;;;;6.57;2.90;;;;;;;21.17;57.18;99300.09;4424288;32;34205;-83
2023/10/24 10:56:51;;;;;;;6.30;2.87;;;;;;;21.28;55.61;99298.28;4409746;32;33583;-83
2023/10/24 10:59:33;;;;;;;7.50;3.03;;;;;;;21.23;55.77;99294.81;4411891;32;32190;-84
2023/10/24 11:02:28;;;;;;;7.07;3.08;;;;;;;21.38;55.96;99299.97;4421612;32;33184;-83
2023/10/24 11:04:55;;;;;;;7.00;2.67;;;;;;;21.61;55.30;99301.56;4422166;32;33585;-84
2023/10/24 11:07:51;;;;;;;7.65;2.60;;;;;;;21.67;55.14;99295.38;4423376;32;34426;-84
2023/10/24 11:10:19;;;;;;;5.30;2.23;;;;;;;21.55;55.43;99297.22;4416625;32;32644;-83
2023/10/24 11:12:48;;;;;;;7.68;2.45;;;;;;;21.74;54.55;99302.34;4424527;32;33210;-83
2023/10/24 11:15:17;;;;;;;7.55;2.67;;;;;;;21.80;54.41;99302.28;4429739;32;34247;-82
2023/10/24 11:17:46;;;;;;;7.50;2.70;;;;;;;21.74;54.62;99305.00;4431314;32;33740;-84
2023/10/24 11:20:14;;;;;;;5.80;2.50;;;;;;;21.61;54.75;99298.94;4428181;32;34240;-82
2023/10/24 11:22:50;;;;;;;8.18;2.72;;;;;;;21.85;54.06;99305.78;4420234;32;32601;-84
2023/10/24 11:25:19;;;;;;;9.13;2.75;;;;;;;21.43;61.07;99304.34;4424712;32;33304;-82
2023/10/24 11:27:49;;;;;;;8.77;2.70;;;;;;;21.79;56.03;99290.88;4427175;32;33815;-82
2023/10/24 11:30:18;;;;;;;9.73;2.90;;;;;;;21.35;55.68;99294.72;4412109;32;32153;-85
2023/10/24 11:32:45;;;;;;;6.37;2.80;;;;;;;21.40;55.99;99292.94;4426638;32;33299;-83
2023/10/24 11:35:13;;;;;;;7.45;2.70;;;;;;;21.54;56.33;99289.34;4437219;32;34395;-84